sensor_id;sensor_type;location;lat;lon;timestamp;P1;durP1;ratioP1;P2;durP2;ratioP2
29200;SDS011;16244;51.956;12.980;2022-11-20T00:00:40;9.00;;;7.87;;
29200;SDS011;16244;51.956;12.980;2022-11-20T00:03:08;12.97;;;8.53;;
29200;SDS011;16244;51.956;12.980;2022-11-20T00:05:35;9.70;;;8.70;;
29200;SDS011;16244;51.956;12.980;2022-11-20T00:08:02;14.80;;;8.43;;
29200;SDS011;16244;51.956;12.980;2022-11-20T00:10:31;9.03;;;7.93;;
29200;SDS011;16244;51.956;12.980;2022-11-20T00:13:02;12.63;;;7.97;;
29200;SDS011;16244;51.956;12.980;2022-11-20T00:15:29;11.73;;;7.30;;
29200;SDS011;16244;51.956;12.980;2022-11-20T00:17:57;10.03;;;8.53;;
29200;SDS011;16244;51.956;12.980;2022-11-20T00:20:25;8.20;;;6.70;;
29200;SDS011;16244;51.956;12.980;2022-11-20T00:22:52;7.60;;;6.80;;
29200;SDS011;16244;51.956;12.980;2022-11-20T00:25:19;7.10;;;6.40;;
29200;SDS011;16244;51.956;12.980;2022-11-20T00:27:47;7.93;;;7.17;;
29200;SDS011;16244;51.956;12.980;2022-11-20T00:30:15;7.37;;;6.67;;
29200;SDS011;16244;51.956;12.980;2022-11-20T00:32:42;9.77;;;7.27;;
29200;SDS011;16244;51.956;12.980;2022-11-20T00:35:10;9.93;;;7.50;;
29200;SDS011;16244;51.956;12.980;2022-11-20T00:37:37;8.60;;;7.23;;
29200;SDS011;16244;51.956;12.980;2022-11-20T00:40:05;8.23;;;7.23;;
29200;SDS011;16244;51.956;12.980;2022-11-20T00:42:33;8.60;;;6.97;;
29200;SDS011;16244;51.956;12.980;2022-11-20T00:45:02;9.63;;;7.47;;
29200;SDS011;16244;51.956;12.980;2022-11-20T00:47:29;8.70;;;7.80;;
29200;SDS011;16244;51.956;12.980;2022-11-20T00:49:57;8.47;;;6.90;;
29200;SDS011;16244;51.956;12.980;2022-11-20T00:52:24;8.33;;;7.07;;
29200;SDS011;16244;51.956;12.980;2022-11-20T00:54:51;10.07;;;7.40;;
29200;SDS011;16244;51.956;12.980;2022-11-20T00:57:19;8.07;;;7.23;;
29200;SDS011;16244;51.956;12.980;2022-11-20T00:59:46;8.13;;;6.90;;
29200;SDS011;16244;51.956;12.980;2022-11-20T01:02:14;7.33;;;6.63;;
29200;SDS011;16244;51.956;12.980;2022-11-20T01:04:41;11.20;;;7.40;;
29200;SDS011;16244;51.956;12.980;2022-11-20T01:07:08;8.97;;;7.07;;
29200;SDS011;16244;51.956;12.980;2022-11-20T01:09:36;8.83;;;6.70;;
29200;SDS011;16244;51.956;12.980;2022-11-20T01:12:03;8.77;;;7.23;;
29200;SDS011;16244;51.956;12.980;2022-11-20T01:14:30;6.67;;;6.03;;
29200;SDS011;16244;51.956;12.980;2022-11-20T01:16:57;7.77;;;7.00;;
29200;SDS011;16244;51.956;12.980;2022-11-20T01:19:26;9.67;;;7.33;;
29200;SDS011;16244;51.956;12.980;2022-11-20T01:21:53;10.40;;;7.00;;
29200;SDS011;16244;51.956;12.980;2022-11-20T01:24:21;7.73;;;6.93;;
29200;SDS011;16244;51.956;12.980;2022-11-20T01:26:50;8.60;;;7.00;;
29200;SDS011;16244;51.956;12.980;2022-11-20T01:29:19;7.20;;;6.60;;
29200;SDS011;16244;51.956;12.980;2022-11-20T01:31:48;8.67;;;6.37;;
29200;SDS011;16244;51.956;12.980;2022-11-20T01:34:16;7.03;;;6.20;;
29200;SDS011;16244;51.956;12.980;2022-11-20T01:36:46;7.40;;;6.77;;
29200;SDS011;16244;51.956;12.980;2022-11-20T01:39:13;6.40;;;5.90;;
29200;SDS011;16244;51.956;12.980;2022-11-20T01:41:42;9.27;;;6.73;;
29200;SDS011;16244;51.956;12.980;2022-11-20T01:44:49;6.07;;;5.60;;
29200;SDS011;16244;51.956;12.980;2022-11-20T01:47:20;8.10;;;7.23;;
29200;SDS011;16244;51.956;12.980;2022-11-20T01:49:52;8.37;;;6.67;;
29200;SDS011;16244;51.956;12.980;2022-11-20T01:52:27;7.43;;;6.73;;
29200;SDS011;16244;51.956;12.980;2022-11-20T01:55:00;7.87;;;6.00;;
29200;SDS011;16244;51.956;12.980;2022-11-20T01:57:31;7.53;;;6.47;;
29200;SDS011;16244;51.956;12.980;2022-11-20T02:00:02;7.20;;;6.60;;
29200;SDS011;16244;51.956;12.980;2022-11-20T02:02:32;7.57;;;6.70;;
29200;SDS011;16244;51.956;12.980;2022-11-20T02:05:00;9.03;;;7.37;;
29200;SDS011;16244;51.956;12.980;2022-11-20T02:07:34;6.50;;;5.90;;
29200;SDS011;16244;51.956;12.980;2022-11-20T02:10:02;7.20;;;6.50;;
29200;SDS011;16244;51.956;12.980;2022-11-20T02:12:30;9.77;;;7.60;;
29200;SDS011;16244;51.956;12.980;2022-11-20T02:15:23;8.97;;;7.37;;
29200;SDS011;16244;51.956;12.980;2022-11-20T02:17:50;9.87;;;6.60;;
29200;SDS011;16244;51.956;12.980;2022-11-20T02:20:18;8.93;;;6.87;;
29200;SDS011;16244;51.956;12.980;2022-11-20T02:22:47;7.47;;;6.13;;
29200;SDS011;16244;51.956;12.980;2022-11-20T02:25:21;10.03;;;6.70;;
29200;SDS011;16244;51.956;12.980;2022-11-20T02:27:51;9.73;;;7.57;;
29200;SDS011;16244;51.956;12.980;2022-11-20T02:30:18;8.77;;;7.63;;
29200;SDS011;16244;51.956;12.980;2022-11-20T02:32:46;11.17;;;7.03;;
29200;SDS011;16244;51.956;12.980;2022-11-20T02:38:11;8.20;;;7.20;;
29200;SDS011;16244;51.956;12.980;2022-11-20T02:40:40;7.97;;;6.80;;
29200;SDS011;16244;51.956;12.980;2022-11-20T02:43:08;8.03;;;6.30;;
29200;SDS011;16244;51.956;12.980;2022-11-20T02:45:35;7.70;;;6.33;;
29200;SDS011;16244;51.956;12.980;2022-11-20T02:48:03;7.73;;;7.00;;
29200;SDS011;16244;51.956;12.980;2022-11-20T02:50:32;7.47;;;6.87;;
29200;SDS011;16244;51.956;12.980;2022-11-20T02:53:00;8.53;;;7.67;;
29200;SDS011;16244;51.956;12.980;2022-11-20T02:55:27;7.27;;;6.57;;
29200;SDS011;16244;51.956;12.980;2022-11-20T02:57:55;8.67;;;7.77;;
29200;SDS011;16244;51.956;12.980;2022-11-20T03:00:22;8.27;;;7.30;;
29200;SDS011;16244;51.956;12.980;2022-11-20T03:02:50;7.33;;;6.63;;
29200;SDS011;16244;51.956;12.980;2022-11-20T03:05:17;7.53;;;6.87;;
29200;SDS011;16244;51.956;12.980;2022-11-20T03:07:44;10.03;;;7.80;;
29200;SDS011;16244;51.956;12.980;2022-11-20T03:10:11;11.00;;;7.70;;
29200;SDS011;16244;51.956;12.980;2022-11-20T03:12:38;10.50;;;8.13;;
29200;SDS011;16244;51.956;12.980;2022-11-20T03:15:07;11.70;;;7.80;;
29200;SDS011;16244;51.956;12.980;2022-11-20T03:17:35;11.40;;;7.60;;
29200;SDS011;16244;51.956;12.980;2022-11-20T03:20:03;8.37;;;7.47;;
29200;SDS011;16244;51.956;12.980;2022-11-20T03:22:31;8.83;;;7.00;;
29200;SDS011;16244;51.956;12.980;2022-11-20T03:24:58;9.90;;;7.83;;
29200;SDS011;16244;51.956;12.980;2022-11-20T03:27:25;8.77;;;7.60;;
29200;SDS011;16244;51.956;12.980;2022-11-20T03:29:52;9.50;;;7.80;;
29200;SDS011;16244;51.956;12.980;2022-11-20T03:32:20;10.30;;;7.30;;
29200;SDS011;16244;51.956;12.980;2022-11-20T03:34:48;9.80;;;7.30;;
29200;SDS011;16244;51.956;12.980;2022-11-20T03:37:15;8.37;;;7.47;;
29200;SDS011;16244;51.956;12.980;2022-11-20T03:39:42;7.33;;;6.73;;
29200;SDS011;16244;51.956;12.980;2022-11-20T03:42:09;14.53;;;8.00;;
29200;SDS011;16244;51.956;12.980;2022-11-20T03:44:57;10.23;;;7.53;;
29200;SDS011;16244;51.956;12.980;2022-11-20T03:47:25;8.03;;;6.30;;
29200;SDS011;16244;51.956;12.980;2022-11-20T03:49:52;7.83;;;7.13;;
29200;SDS011;16244;51.956;12.980;2022-11-20T03:52:19;9.03;;;7.63;;
29200;SDS011;16244;51.956;12.980;2022-11-20T03:54:46;8.93;;;7.77;;
29200;SDS011;16244;51.956;12.980;2022-11-20T03:57:13;10.00;;;7.87;;
29200;SDS011;16244;51.956;12.980;2022-11-20T03:59:40;7.50;;;6.90;;
29200;SDS011;16244;51.956;12.980;2022-11-20T04:02:08;8.53;;;7.00;;
29200;SDS011;16244;51.956;12.980;2022-11-20T04:04:36;8.90;;;7.40;;
29200;SDS011;16244;51.956;12.980;2022-11-20T04:07:03;7.43;;;6.70;;
29200;SDS011;16244;51.956;12.980;2022-11-20T04:09:31;7.20;;;6.60;;
29200;SDS011;16244;51.956;12.980;2022-11-20T04:11:58;8.47;;;7.33;;
29200;SDS011;16244;51.956;12.980;2022-11-20T04:14:25;10.40;;;7.43;;
29200;SDS011;16244;51.956;12.980;2022-11-20T04:16:52;7.90;;;6.97;;
29200;SDS011;16244;51.956;12.980;2022-11-20T04:19:19;12.63;;;8.53;;
29200;SDS011;16244;51.956;12.980;2022-11-20T04:21:48;8.80;;;7.23;;
29200;SDS011;16244;51.956;12.980;2022-11-20T04:24:15;9.90;;;7.23;;
29200;SDS011;16244;51.956;12.980;2022-11-20T04:26:43;8.70;;;7.47;;
29200;SDS011;16244;51.956;12.980;2022-11-20T04:29:10;7.70;;;7.07;;
29200;SDS011;16244;51.956;12.980;2022-11-20T04:31:38;8.40;;;7.10;;
29200;SDS011;16244;51.956;12.980;2022-11-20T04:34:06;9.50;;;7.70;;
29200;SDS011;16244;51.956;12.980;2022-11-20T04:36:34;8.13;;;7.33;;
29200;SDS011;16244;51.956;12.980;2022-11-20T04:39:03;9.40;;;7.00;;
29200;SDS011;16244;51.956;12.980;2022-11-20T04:41:32;9.17;;;7.43;;
29200;SDS011;16244;51.956;12.980;2022-11-20T04:44:02;14.60;;;7.10;;
29200;SDS011;16244;51.956;12.980;2022-11-20T04:46:31;7.70;;;6.30;;
29200;SDS011;16244;51.956;12.980;2022-11-20T04:48:59;11.20;;;8.17;;
29200;SDS011;16244;51.956;12.980;2022-11-20T04:51:27;8.93;;;7.93;;
29200;SDS011;16244;51.956;12.980;2022-11-20T04:53:54;10.00;;;7.60;;
29200;SDS011;16244;51.956;12.980;2022-11-20T04:56:23;9.67;;;7.60;;
29200;SDS011;16244;51.956;12.980;2022-11-20T04:58:50;7.83;;;7.03;;
29200;SDS011;16244;51.956;12.980;2022-11-20T05:01:18;9.97;;;7.23;;
29200;SDS011;16244;51.956;12.980;2022-11-20T05:03:47;9.27;;;8.00;;
29200;SDS011;16244;51.956;12.980;2022-11-20T05:06:15;9.53;;;7.70;;
29200;SDS011;16244;51.956;12.980;2022-11-20T05:08:43;9.60;;;7.57;;
29200;SDS011;16244;51.956;12.980;2022-11-20T05:11:11;11.47;;;8.93;;
29200;SDS011;16244;51.956;12.980;2022-11-20T05:13:41;10.67;;;8.57;;
29200;SDS011;16244;51.956;12.980;2022-11-20T05:16:09;13.30;;;8.47;;
29200;SDS011;16244;51.956;12.980;2022-11-20T05:18:38;9.43;;;8.00;;
29200;SDS011;16244;51.956;12.980;2022-11-20T05:21:06;10.70;;;7.50;;
29200;SDS011;16244;51.956;12.980;2022-11-20T05:23:34;8.73;;;7.60;;
29200;SDS011;16244;51.956;12.980;2022-11-20T05:26:02;8.93;;;7.50;;
29200;SDS011;16244;51.956;12.980;2022-11-20T05:28:30;10.13;;;8.57;;
29200;SDS011;16244;51.956;12.980;2022-11-20T05:31:04;12.83;;;8.70;;
29200;SDS011;16244;51.956;12.980;2022-11-20T05:33:33;17.07;;;11.10;;
29200;SDS011;16244;51.956;12.980;2022-11-20T05:36:00;19.30;;;9.90;;
29200;SDS011;16244;51.956;12.980;2022-11-20T05:38:28;11.23;;;8.57;;
29200;SDS011;16244;51.956;12.980;2022-11-20T05:41:02;10.03;;;8.33;;
29200;SDS011;16244;51.956;12.980;2022-11-20T05:43:31;12.93;;;9.30;;
29200;SDS011;16244;51.956;12.980;2022-11-20T05:45:59;12.10;;;9.70;;
29200;SDS011;16244;51.956;12.980;2022-11-20T05:48:27;9.70;;;8.70;;
29200;SDS011;16244;51.956;12.980;2022-11-20T05:50:56;12.73;;;9.20;;
29200;SDS011;16244;51.956;12.980;2022-11-20T05:53:23;13.97;;;9.60;;
29200;SDS011;16244;51.956;12.980;2022-11-20T05:55:56;11.77;;;9.20;;
29200;SDS011;16244;51.956;12.980;2022-11-20T05:58:23;11.67;;;10.23;;
29200;SDS011;16244;51.956;12.980;2022-11-20T06:00:51;13.77;;;10.70;;
29200;SDS011;16244;51.956;12.980;2022-11-20T06:03:18;13.97;;;10.17;;
29200;SDS011;16244;51.956;12.980;2022-11-20T06:05:47;14.13;;;10.37;;
29200;SDS011;16244;51.956;12.980;2022-11-20T06:08:14;20.20;;;11.47;;
29200;SDS011;16244;51.956;12.980;2022-11-20T06:10:41;14.07;;;10.47;;
29200;SDS011;16244;51.956;12.980;2022-11-20T06:13:09;13.20;;;9.27;;
29200;SDS011;16244;51.956;12.980;2022-11-20T06:15:36;15.43;;;11.10;;
29200;SDS011;16244;51.956;12.980;2022-11-20T06:18:03;22.07;;;11.37;;
29200;SDS011;16244;51.956;12.980;2022-11-20T06:20:30;16.07;;;10.70;;
29200;SDS011;16244;51.956;12.980;2022-11-20T06:22:58;16.90;;;11.33;;
29200;SDS011;16244;51.956;12.980;2022-11-20T06:25:26;17.30;;;10.73;;
29200;SDS011;16244;51.956;12.980;2022-11-20T06:27:53;17.10;;;12.17;;
29200;SDS011;16244;51.956;12.980;2022-11-20T06:30:20;15.77;;;11.30;;
29200;SDS011;16244;51.956;12.980;2022-11-20T06:32:47;13.80;;;10.50;;
29200;SDS011;16244;51.956;12.980;2022-11-20T06:35:14;16.20;;;11.33;;
29200;SDS011;16244;51.956;12.980;2022-11-20T06:37:42;18.50;;;11.43;;
29200;SDS011;16244;51.956;12.980;2022-11-20T06:40:11;14.87;;;10.80;;
29200;SDS011;16244;51.956;12.980;2022-11-20T06:42:38;17.63;;;11.80;;
29200;SDS011;16244;51.956;12.980;2022-11-20T06:45:06;17.27;;;10.93;;
29200;SDS011;16244;51.956;12.980;2022-11-20T06:47:34;15.00;;;11.27;;
29200;SDS011;16244;51.956;12.980;2022-11-20T06:50:01;16.67;;;11.20;;
29200;SDS011;16244;51.956;12.980;2022-11-20T06:52:28;23.30;;;11.97;;
29200;SDS011;16244;51.956;12.980;2022-11-20T06:54:55;17.90;;;12.30;;
29200;SDS011;16244;51.956;12.980;2022-11-20T06:57:24;12.37;;;9.73;;
29200;SDS011;16244;51.956;12.980;2022-11-20T06:59:51;17.50;;;11.37;;
29200;SDS011;16244;51.956;12.980;2022-11-20T07:02:18;19.57;;;11.57;;
29200;SDS011;16244;51.956;12.980;2022-11-20T07:04:45;18.60;;;11.83;;
29200;SDS011;16244;51.956;12.980;2022-11-20T07:07:12;20.47;;;11.87;;
29200;SDS011;16244;51.956;12.980;2022-11-20T07:09:39;19.33;;;12.20;;
29200;SDS011;16244;51.956;12.980;2022-11-20T07:12:06;18.33;;;12.10;;
29200;SDS011;16244;51.956;12.980;2022-11-20T07:14:36;20.10;;;12.93;;
29200;SDS011;16244;51.956;12.980;2022-11-20T07:17:03;20.90;;;13.07;;
29200;SDS011;16244;51.956;12.980;2022-11-20T07:19:30;28.20;;;11.90;;
29200;SDS011;16244;51.956;12.980;2022-11-20T07:21:57;18.73;;;11.73;;
29200;SDS011;16244;51.956;12.980;2022-11-20T07:24:25;22.57;;;13.33;;
29200;SDS011;16244;51.956;12.980;2022-11-20T07:26:52;31.47;;;12.80;;
29200;SDS011;16244;51.956;12.980;2022-11-20T07:29:19;18.80;;;12.67;;
29200;SDS011;16244;51.956;12.980;2022-11-20T07:31:47;25.00;;;14.60;;
29200;SDS011;16244;51.956;12.980;2022-11-20T07:34:14;22.30;;;14.17;;
29200;SDS011;16244;51.956;12.980;2022-11-20T07:36:41;30.70;;;18.00;;
29200;SDS011;16244;51.956;12.980;2022-11-20T07:39:08;27.97;;;15.47;;
29200;SDS011;16244;51.956;12.980;2022-11-20T07:41:36;21.40;;;14.00;;
29200;SDS011;16244;51.956;12.980;2022-11-20T07:44:03;21.97;;;13.67;;
29200;SDS011;16244;51.956;12.980;2022-11-20T07:46:30;20.57;;;13.53;;
29200;SDS011;16244;51.956;12.980;2022-11-20T07:48:59;21.07;;;13.23;;
29200;SDS011;16244;51.956;12.980;2022-11-20T07:51:26;18.10;;;13.07;;
29200;SDS011;16244;51.956;12.980;2022-11-20T07:53:55;24.23;;;12.30;;
29200;SDS011;16244;51.956;12.980;2022-11-20T07:56:21;21.23;;;13.47;;
29200;SDS011;16244;51.956;12.980;2022-11-20T07:58:48;23.30;;;14.23;;
29200;SDS011;16244;51.956;12.980;2022-11-20T08:01:16;24.83;;;14.37;;
29200;SDS011;16244;51.956;12.980;2022-11-20T08:03:43;21.70;;;14.03;;
29200;SDS011;16244;51.956;12.980;2022-11-20T08:06:11;24.47;;;15.10;;
29200;SDS011;16244;51.956;12.980;2022-11-20T08:08:40;25.20;;;14.43;;
29200;SDS011;16244;51.956;12.980;2022-11-20T08:11:07;23.20;;;14.80;;
29200;SDS011;16244;51.956;12.980;2022-11-20T08:13:51;21.30;;;12.27;;
29200;SDS011;16244;51.956;12.980;2022-11-20T08:16:36;22.40;;;13.27;;
29200;SDS011;16244;51.956;12.980;2022-11-20T08:19:03;25.97;;;15.53;;
29200;SDS011;16244;51.956;12.980;2022-11-20T08:21:32;23.97;;;15.23;;
29200;SDS011;16244;51.956;12.980;2022-11-20T08:23:59;25.07;;;15.77;;
29200;SDS011;16244;51.956;12.980;2022-11-20T08:26:26;25.97;;;15.73;;
29200;SDS011;16244;51.956;12.980;2022-11-20T08:28:53;25.17;;;15.63;;
29200;SDS011;16244;51.956;12.980;2022-11-20T08:31:21;35.57;;;20.27;;
29200;SDS011;16244;51.956;12.980;2022-11-20T08:33:48;36.53;;;20.70;;
29200;SDS011;16244;51.956;12.980;2022-11-20T08:36:16;76.33;;;29.80;;
29200;SDS011;16244;51.956;12.980;2022-11-20T08:38:47;42.07;;;23.83;;
29200;SDS011;16244;51.956;12.980;2022-11-20T08:41:15;24.20;;;16.27;;
29200;SDS011;16244;51.956;12.980;2022-11-20T08:43:53;31.60;;;19.00;;
29200;SDS011;16244;51.956;12.980;2022-11-20T08:46:23;26.57;;;17.27;;
29200;SDS011;16244;51.956;12.980;2022-11-20T08:48:51;32.13;;;19.07;;
29200;SDS011;16244;51.956;12.980;2022-11-20T08:51:18;24.83;;;16.03;;
29200;SDS011;16244;51.956;12.980;2022-11-20T08:53:47;23.40;;;15.23;;
29200;SDS011;16244;51.956;12.980;2022-11-20T08:56:17;22.83;;;13.70;;
29200;SDS011;16244;51.956;12.980;2022-11-20T08:58:45;24.10;;;13.93;;
29200;SDS011;16244;51.956;12.980;2022-11-20T09:01:12;20.30;;;13.77;;
29200;SDS011;16244;51.956;12.980;2022-11-20T09:03:39;23.97;;;14.47;;
29200;SDS011;16244;51.956;12.980;2022-11-20T09:06:07;23.23;;;15.00;;
29200;SDS011;16244;51.956;12.980;2022-11-20T09:08:34;21.70;;;14.53;;
29200;SDS011;16244;51.956;12.980;2022-11-20T09:11:03;25.07;;;14.13;;
29200;SDS011;16244;51.956;12.980;2022-11-20T09:13:31;21.30;;;14.43;;
29200;SDS011;16244;51.956;12.980;2022-11-20T09:16:00;21.50;;;13.90;;
29200;SDS011;16244;51.956;12.980;2022-11-20T09:18:28;23.27;;;13.70;;
29200;SDS011;16244;51.956;12.980;2022-11-20T09:20:57;22.10;;;14.30;;
29200;SDS011;16244;51.956;12.980;2022-11-20T09:23:24;19.00;;;13.63;;
29200;SDS011;16244;51.956;12.980;2022-11-20T09:25:51;23.17;;;13.73;;
29200;SDS011;16244;51.956;12.980;2022-11-20T09:28:22;20.63;;;13.20;;
29200;SDS011;16244;51.956;12.980;2022-11-20T09:30:49;24.70;;;15.10;;
29200;SDS011;16244;51.956;12.980;2022-11-20T09:33:16;26.87;;;14.27;;
29200;SDS011;16244;51.956;12.980;2022-11-20T09:35:43;24.93;;;14.50;;
29200;SDS011;16244;51.956;12.980;2022-11-20T09:38:10;25.27;;;14.40;;
29200;SDS011;16244;51.956;12.980;2022-11-20T09:40:40;25.53;;;14.40;;
29200;SDS011;16244;51.956;12.980;2022-11-20T09:43:12;21.67;;;13.53;;
29200;SDS011;16244;51.956;12.980;2022-11-20T09:45:50;24.63;;;13.97;;
29200;SDS011;16244;51.956;12.980;2022-11-20T09:48:42;24.47;;;14.43;;
29200;SDS011;16244;51.956;12.980;2022-11-20T09:51:23;19.80;;;12.77;;
29200;SDS011;16244;51.956;12.980;2022-11-20T09:54:02;23.33;;;13.50;;
29200;SDS011;16244;51.956;12.980;2022-11-20T09:56:39;21.60;;;14.70;;
29200;SDS011;16244;51.956;12.980;2022-11-20T09:59:07;24.80;;;15.30;;
29200;SDS011;16244;51.956;12.980;2022-11-20T10:01:46;24.83;;;13.97;;
29200;SDS011;16244;51.956;12.980;2022-11-20T10:04:15;23.83;;;15.60;;
29200;SDS011;16244;51.956;12.980;2022-11-20T10:06:47;23.20;;;13.80;;
29200;SDS011;16244;51.956;12.980;2022-11-20T10:09:21;22.83;;;13.30;;
29200;SDS011;16244;51.956;12.980;2022-11-20T10:11:56;23.47;;;13.97;;
29200;SDS011;16244;51.956;12.980;2022-11-20T10:14:34;21.00;;;13.67;;
29200;SDS011;16244;51.956;12.980;2022-11-20T10:17:12;25.83;;;15.20;;
29200;SDS011;16244;51.956;12.980;2022-11-20T10:19:47;23.07;;;13.30;;
29200;SDS011;16244;51.956;12.980;2022-11-20T10:22:30;21.63;;;13.27;;
29200;SDS011;16244;51.956;12.980;2022-11-20T10:25:05;21.97;;;12.67;;
29200;SDS011;16244;51.956;12.980;2022-11-20T10:27:43;19.63;;;13.10;;
29200;SDS011;16244;51.956;12.980;2022-11-20T10:30:22;19.40;;;12.40;;
29200;SDS011;16244;51.956;12.980;2022-11-20T10:32:52;15.60;;;11.20;;
29200;SDS011;16244;51.956;12.980;2022-11-20T10:35:25;17.43;;;10.60;;
29200;SDS011;16244;51.956;12.980;2022-11-20T10:37:55;15.30;;;10.60;;
29200;SDS011;16244;51.956;12.980;2022-11-20T10:40:27;15.13;;;10.67;;
29200;SDS011;16244;51.956;12.980;2022-11-20T10:42:59;19.47;;;11.27;;
29200;SDS011;16244;51.956;12.980;2022-11-20T10:45:34;16.07;;;10.67;;
29200;SDS011;16244;51.956;12.980;2022-11-20T10:48:22;16.27;;;10.17;;
29200;SDS011;16244;51.956;12.980;2022-11-20T10:50:54;16.40;;;11.50;;
29200;SDS011;16244;51.956;12.980;2022-11-20T10:53:33;14.10;;;9.77;;
29200;SDS011;16244;51.956;12.980;2022-11-20T10:56:16;14.10;;;10.10;;
29200;SDS011;16244;51.956;12.980;2022-11-20T10:58:49;18.20;;;10.07;;
29200;SDS011;16244;51.956;12.980;2022-11-20T11:01:39;15.70;;;9.00;;
29200;SDS011;16244;51.956;12.980;2022-11-20T11:04:15;13.97;;;10.43;;
29200;SDS011;16244;51.956;12.980;2022-11-20T11:06:52;17.57;;;10.10;;
29200;SDS011;16244;51.956;12.980;2022-11-20T11:09:27;13.93;;;9.60;;
29200;SDS011;16244;51.956;12.980;2022-11-20T11:11:59;15.90;;;9.67;;
29200;SDS011;16244;51.956;12.980;2022-11-20T11:14:26;15.60;;;9.90;;
29200;SDS011;16244;51.956;12.980;2022-11-20T11:16:54;13.90;;;9.30;;
29200;SDS011;16244;51.956;12.980;2022-11-20T11:19:24;15.10;;;9.10;;
29200;SDS011;16244;51.956;12.980;2022-11-20T11:21:52;13.20;;;9.30;;
29200;SDS011;16244;51.956;12.980;2022-11-20T11:24:22;9.90;;;8.00;;
29200;SDS011;16244;51.956;12.980;2022-11-20T11:26:55;10.40;;;7.80;;
29200;SDS011;16244;51.956;12.980;2022-11-20T11:29:24;16.40;;;10.33;;
29200;SDS011;16244;51.956;12.980;2022-11-20T11:32:02;18.97;;;12.27;;
29200;SDS011;16244;51.956;12.980;2022-11-20T11:34:32;13.90;;;8.37;;
29200;SDS011;16244;51.956;12.980;2022-11-20T11:36:59;11.37;;;8.30;;
29200;SDS011;16244;51.956;12.980;2022-11-20T11:39:29;10.23;;;7.37;;
29200;SDS011;16244;51.956;12.980;2022-11-20T11:41:57;9.83;;;6.33;;
29200;SDS011;16244;51.956;12.980;2022-11-20T11:44:26;7.53;;;6.70;;
29200;SDS011;16244;51.956;12.980;2022-11-20T11:47:17;9.80;;;7.00;;
29200;SDS011;16244;51.956;12.980;2022-11-20T11:49:50;7.60;;;6.67;;
29200;SDS011;16244;51.956;12.980;2022-11-20T11:52:27;7.93;;;7.13;;
29200;SDS011;16244;51.956;12.980;2022-11-20T11:54:56;11.07;;;7.47;;
29200;SDS011;16244;51.956;12.980;2022-11-20T11:57:28;8.60;;;7.20;;
29200;SDS011;16244;51.956;12.980;2022-11-20T12:00:06;8.40;;;6.83;;
29200;SDS011;16244;51.956;12.980;2022-11-20T12:02:37;8.57;;;7.60;;
29200;SDS011;16244;51.956;12.980;2022-11-20T12:05:18;13.63;;;7.83;;
29200;SDS011;16244;51.956;12.980;2022-11-20T12:07:49;10.30;;;7.60;;
29200;SDS011;16244;51.956;12.980;2022-11-20T12:10:21;10.20;;;6.90;;
29200;SDS011;16244;51.956;12.980;2022-11-20T12:12:51;9.27;;;6.77;;
29200;SDS011;16244;51.956;12.980;2022-11-20T12:15:26;9.83;;;7.30;;
29200;SDS011;16244;51.956;12.980;2022-11-20T12:17:56;10.00;;;7.67;;
29200;SDS011;16244;51.956;12.980;2022-11-20T12:20:26;10.53;;;8.23;;
29200;SDS011;16244;51.956;12.980;2022-11-20T12:22:57;13.00;;;7.90;;
29200;SDS011;16244;51.956;12.980;2022-11-20T12:25:31;18.33;;;7.10;;
29200;SDS011;16244;51.956;12.980;2022-11-20T12:28:23;8.87;;;6.80;;
29200;SDS011;16244;51.956;12.980;2022-11-20T12:31:10;8.57;;;7.00;;
29200;SDS011;16244;51.956;12.980;2022-11-20T12:33:53;11.13;;;8.10;;
29200;SDS011;16244;51.956;12.980;2022-11-20T12:36:32;10.23;;;7.20;;
29200;SDS011;16244;51.956;12.980;2022-11-20T12:39:18;11.40;;;8.47;;
29200;SDS011;16244;51.956;12.980;2022-11-20T12:48:06;10.60;;;7.87;;
29200;SDS011;16244;51.956;12.980;2022-11-20T12:50:48;12.80;;;7.43;;
29200;SDS011;16244;51.956;12.980;2022-11-20T12:53:31;8.10;;;6.97;;
29200;SDS011;16244;51.956;12.980;2022-11-20T12:56:05;12.33;;;6.70;;
29200;SDS011;16244;51.956;12.980;2022-11-20T12:58:44;9.20;;;7.27;;
29200;SDS011;16244;51.956;12.980;2022-11-20T13:01:22;9.87;;;7.20;;
29200;SDS011;16244;51.956;12.980;2022-11-20T13:04:16;11.80;;;8.30;;
29200;SDS011;16244;51.956;12.980;2022-11-20T13:06:54;22.20;;;12.90;;
29200;SDS011;16244;51.956;12.980;2022-11-20T13:09:24;11.20;;;7.47;;
29200;SDS011;16244;51.956;12.980;2022-11-20T13:11:55;16.93;;;6.33;;
29200;SDS011;16244;51.956;12.980;2022-11-20T13:14:32;11.63;;;6.90;;
29200;SDS011;16244;51.956;12.980;2022-11-20T13:17:04;8.57;;;7.07;;
29200;SDS011;16244;51.956;12.980;2022-11-20T13:19:37;11.47;;;7.17;;
29200;SDS011;16244;51.956;12.980;2022-11-20T13:22:05;10.97;;;7.43;;
29200;SDS011;16244;51.956;12.980;2022-11-20T13:24:36;10.47;;;7.77;;
29200;SDS011;16244;51.956;12.980;2022-11-20T13:27:03;15.10;;;7.57;;
29200;SDS011;16244;51.956;12.980;2022-11-20T13:29:44;8.80;;;7.47;;
29200;SDS011;16244;51.956;12.980;2022-11-20T13:32:13;11.20;;;8.40;;
29200;SDS011;16244;51.956;12.980;2022-11-20T13:34:51;13.73;;;7.43;;
29200;SDS011;16244;51.956;12.980;2022-11-20T13:37:24;8.77;;;7.20;;
29200;SDS011;16244;51.956;12.980;2022-11-20T13:40:05;7.33;;;6.67;;
29200;SDS011;16244;51.956;12.980;2022-11-20T13:42:43;7.77;;;6.83;;
29200;SDS011;16244;51.956;12.980;2022-11-20T13:45:21;9.60;;;7.00;;
29200;SDS011;16244;51.956;12.980;2022-11-20T13:47:49;7.23;;;6.53;;
29200;SDS011;16244;51.956;12.980;2022-11-20T13:50:17;6.90;;;6.27;;
29200;SDS011;16244;51.956;12.980;2022-11-20T13:52:48;6.67;;;6.10;;
29200;SDS011;16244;51.956;12.980;2022-11-20T13:55:26;7.57;;;6.77;;
29200;SDS011;16244;51.956;12.980;2022-11-20T14:00:50;11.30;;;7.83;;
29200;SDS011;16244;51.956;12.980;2022-11-20T14:03:22;17.07;;;10.40;;
29200;SDS011;16244;51.956;12.980;2022-11-20T14:05:51;18.57;;;10.47;;
29200;SDS011;16244;51.956;12.980;2022-11-20T14:08:26;17.20;;;10.70;;
29200;SDS011;16244;51.956;12.980;2022-11-20T14:11:06;14.13;;;9.63;;
29200;SDS011;16244;51.956;12.980;2022-11-20T14:13:50;15.07;;;10.40;;
29200;SDS011;16244;51.956;12.980;2022-11-20T14:16:21;12.43;;;8.93;;
29200;SDS011;16244;51.956;12.980;2022-11-20T14:18:48;15.80;;;9.60;;
29200;SDS011;16244;51.956;12.980;2022-11-20T14:21:23;14.63;;;9.63;;
29200;SDS011;16244;51.956;12.980;2022-11-20T14:23:54;13.17;;;9.40;;
29200;SDS011;16244;51.956;12.980;2022-11-20T14:26:31;12.27;;;9.00;;
29200;SDS011;16244;51.956;12.980;2022-11-20T14:28:59;13.30;;;10.00;;
29200;SDS011;16244;51.956;12.980;2022-11-20T14:31:26;14.20;;;9.83;;
29200;SDS011;16244;51.956;12.980;2022-11-20T14:33:54;11.67;;;7.90;;
29200;SDS011;16244;51.956;12.980;2022-11-20T14:36:22;13.63;;;9.93;;
29200;SDS011;16244;51.956;12.980;2022-11-20T14:38:51;10.97;;;7.73;;
29200;SDS011;16244;51.956;12.980;2022-11-20T14:41:20;13.60;;;8.97;;
29200;SDS011;16244;51.956;12.980;2022-11-20T14:43:52;13.87;;;8.87;;
29200;SDS011;16244;51.956;12.980;2022-11-20T14:46:22;9.77;;;7.43;;
29200;SDS011;16244;51.956;12.980;2022-11-20T14:48:51;14.60;;;9.40;;
29200;SDS011;16244;51.956;12.980;2022-11-20T14:51:23;22.70;;;13.03;;